createdAt,value
2023-04-10T00:00:39.543Z,16.45
2023-04-10T00:03:07.970Z,12.55
2023-04-10T00:05:36.519Z,15.07
2023-04-10T00:08:04.869Z,15.63
2023-04-10T00:10:34.567Z,15.90
2023-04-10T00:13:03.666Z,14.87
2023-04-10T00:15:31.978Z,16.80
2023-04-10T00:18:00.317Z,19.52
2023-04-10T00:20:28.672Z,15.35
2023-04-10T00:22:56.924Z,16.80
2023-04-10T00:25:26.557Z,17.35
2023-04-10T00:27:56.806Z,22.97
2023-04-10T00:30:25.474Z,15.15
2023-04-10T00:32:53.762Z,16.60
2023-04-10T00:35:21.995Z,17.23
2023-04-10T00:37:50.544Z,17.48
2023-04-10T00:40:18.827Z,15.10
2023-04-10T00:42:47.131Z,15.90
2023-04-10T00:45:16.892Z,15.32
2023-04-10T00:47:45.266Z,16.67
2023-04-10T00:50:13.613Z,18.25
2023-04-10T00:52:41.978Z,15.68
2023-04-10T00:55:11.049Z,16.27
2023-04-10T00:57:39.619Z,20.30
2023-04-10T01:00:09.374Z,14.02
2023-04-10T01:02:39.332Z,12.43
2023-04-10T01:05:07.922Z,15.70
2023-04-10T01:07:45.371Z,15.80
2023-04-10T01:10:19.281Z,13.80
2023-04-10T01:12:56.782Z,17.23
2023-04-10T01:15:27.055Z,17.60
2023-04-10T01:17:59.375Z,16.25
2023-04-10T01:20:30.006Z,16.30
2023-04-10T01:25:42.622Z,22.47
2023-04-10T01:28:40.448Z,19.63
2023-04-10T01:31:11.030Z,19.17
2023-04-10T01:36:10.040Z,15.35
2023-04-10T01:38:41.485Z,14.75
2023-04-10T01:41:09.823Z,16.10
2023-04-10T01:43:40.211Z,15.55
2023-04-10T01:46:08.725Z,20.20
2023-04-10T01:48:37.295Z,13.73
2023-04-10T01:51:08.547Z,16.40
2023-04-10T01:53:38.368Z,14.38
2023-04-10T01:56:08.990Z,17.27
2023-04-10T02:01:07.968Z,18.30
2023-04-10T02:03:36.435Z,19.45
2023-04-10T02:06:12.739Z,18.85
2023-04-10T02:08:43.635Z,18.13
2023-04-10T02:11:16.830Z,17.42
2023-04-10T02:13:45.336Z,18.75
2023-04-10T02:16:17.373Z,20.00
2023-04-10T02:18:46.594Z,19.42
2023-04-10T02:21:14.953Z,18.90
2023-04-10T02:23:43.265Z,18.92
2023-04-10T02:26:11.611Z,16.80
2023-04-10T02:28:40.381Z,16.85
2023-04-10T02:31:08.952Z,18.25
2023-04-10T02:33:38.663Z,17.33
2023-04-10T02:36:07.885Z,19.07
2023-04-10T02:38:36.217Z,22.75
2023-04-10T02:41:04.763Z,18.70
2023-04-10T02:43:33.057Z,20.70
2023-04-10T02:46:01.371Z,19.98
2023-04-10T02:48:29.627Z,19.10
2023-04-10T02:50:59.974Z,17.83
2023-04-10T02:53:28.257Z,17.73
2023-04-10T02:55:56.529Z,20.83
2023-04-10T02:58:24.827Z,18.88
2023-04-10T03:00:53.192Z,16.10
2023-04-10T03:03:21.645Z,19.02
2023-04-10T03:05:50.059Z,18.13
2023-04-10T03:08:19.811Z,16.67
2023-04-10T03:10:49.273Z,16.20
2023-04-10T03:13:18.177Z,15.20
2023-04-10T03:15:46.597Z,17.15
2023-04-10T03:18:14.867Z,15.05
2023-04-10T03:20:45.033Z,17.27
2023-04-10T03:23:13.616Z,17.15
2023-04-10T03:25:43.437Z,16.08
2023-04-10T03:28:11.702Z,18.80
2023-04-10T03:30:40.046Z,16.77
2023-04-10T03:33:08.310Z,17.25
2023-04-10T03:35:36.571Z,14.27
2023-04-10T03:38:04.868Z,16.55
2023-04-10T03:40:34.286Z,14.90
2023-04-10T03:43:04.161Z,16.42
2023-04-10T03:45:32.426Z,16.08
2023-04-10T03:48:00.731Z,15.68
2023-04-10T03:50:29.189Z,16.73
2023-04-10T03:52:57.797Z,17.98
2023-04-10T03:55:26.149Z,16.17
2023-04-10T03:57:54.560Z,15.90
2023-04-10T04:00:26.098Z,20.85
2023-04-10T04:02:55.307Z,13.63
2023-04-10T04:05:24.250Z,14.65
2023-04-10T04:07:52.491Z,16.15
2023-04-10T04:10:20.751Z,17.85
2023-04-10T04:12:49.026Z,17.08
2023-04-10T04:15:17.413Z,17.65
2023-04-10T04:17:47.949Z,18.42
2023-04-10T04:22:44.194Z,18.55
2023-04-10T04:25:12.445Z,21.17
2023-04-10T04:27:41.702Z,14.73
2023-04-10T04:30:11.519Z,17.80
2023-04-10T04:32:39.904Z,15.48
2023-04-10T04:35:10.599Z,15.63
2023-04-10T04:40:07.917Z,16.90
2023-04-10T04:42:37.359Z,18.58
2023-04-10T04:45:06.596Z,18.70
2023-04-10T04:47:34.946Z,14.85
2023-04-10T04:50:03.228Z,21.75
2023-04-10T04:52:35.331Z,12.60
2023-04-10T04:55:03.607Z,13.25
2023-04-10T04:57:31.902Z,14.20
2023-04-10T05:00:00.307Z,9.85
2023-04-10T05:02:28.656Z,11.48
2023-04-10T05:04:57.023Z,9.93
2023-04-10T05:07:25.394Z,8.38
2023-04-10T05:09:55.021Z,8.95
2023-04-10T05:12:23.284Z,11.80
2023-04-10T05:14:51.574Z,12.35
2023-04-10T05:17:19.885Z,12.48
2023-04-10T05:19:48.116Z,10.75
2023-04-10T05:22:18.087Z,9.25
2023-04-10T05:24:47.094Z,10.93
2023-04-10T05:27:18.903Z,9.07
2023-04-10T05:29:47.196Z,19.88
2023-04-10T05:32:15.534Z,17.35
2023-04-10T05:34:43.821Z,10.52
2023-04-10T05:37:13.040Z,17.08
2023-04-10T05:39:41.399Z,17.58
2023-04-10T05:42:09.664Z,20.75
2023-04-10T05:44:39.292Z,22.35
2023-04-10T05:47:07.600Z,16.97
2023-04-10T05:49:36.050Z,17.90
2023-04-10T05:52:04.342Z,18.65
2023-04-10T05:54:32.628Z,19.63
2023-04-10T05:57:01.713Z,20.13
2023-04-10T05:59:29.985Z,21.20
2023-04-10T06:01:59.651Z,19.95
2023-04-10T06:04:28.290Z,23.10
2023-04-10T06:06:57.189Z,20.50
2023-04-10T06:09:25.731Z,22.23
2023-04-10T06:11:54.305Z,24.75
2023-04-10T06:14:22.646Z,21.60
2023-04-10T06:16:51.176Z,22.10
2023-04-10T06:19:21.110Z,19.80
2023-04-10T06:21:49.343Z,22.52
2023-04-10T06:24:17.602Z,21.42
2023-04-10T06:26:45.928Z,17.67
2023-04-10T06:29:14.214Z,16.40
2023-04-10T06:31:42.529Z,21.80
2023-04-10T06:34:10.819Z,23.92
2023-04-10T06:36:40.765Z,21.13
2023-04-10T06:39:09.006Z,23.38
2023-04-10T06:41:37.313Z,21.27
2023-04-10T06:44:05.952Z,24.58
2023-04-10T06:46:34.186Z,23.10
2023-04-10T06:49:02.717Z,22.23
2023-04-10T06:51:31.483Z,21.55
2023-04-10T06:54:01.322Z,21.20
2023-04-10T06:56:29.692Z,20.77
2023-04-10T06:58:57.966Z,20.73
2023-04-10T07:01:26.674Z,18.17
2023-04-10T07:03:56.046Z,21.08
2023-04-10T07:06:24.483Z,18.40
2023-04-10T07:08:53.059Z,22.33
2023-04-10T07:11:22.916Z,18.90
2023-04-10T07:13:53.944Z,19.63
2023-04-10T07:16:22.559Z,15.40
2023-04-10T07:18:50.932Z,16.63
2023-04-10T07:21:19.172Z,16.88
2023-04-10T07:23:47.404Z,13.95
2023-04-10T07:26:16.508Z,16.08
2023-04-10T07:28:46.177Z,16.08
2023-04-10T07:31:15.002Z,17.17
2023-04-10T07:33:43.433Z,15.50
2023-04-10T07:36:11.883Z,14.07
2023-04-10T07:38:46.914Z,14.98
2023-04-10T07:41:29.960Z,15.63
2023-04-10T07:44:39.368Z,14.57
2023-04-10T07:47:10.929Z,13.43
2023-04-10T07:52:21.070Z,11.00
2023-04-10T07:55:04.394Z,12.20
2023-04-10T07:57:37.744Z,13.57
2023-04-10T08:00:18.633Z,14.40
2023-04-10T08:02:52.948Z,14.02
2023-04-10T08:05:22.633Z,13.18
2023-04-10T08:07:50.892Z,16.10
2023-04-10T08:10:19.253Z,13.90
2023-04-10T08:12:47.528Z,13.98
2023-04-10T08:15:17.611Z,12.48
2023-04-10T08:17:45.880Z,9.00
2023-04-10T08:20:14.989Z,13.25
2023-04-10T08:22:43.281Z,11.73
2023-04-10T08:25:11.552Z,13.15
2023-04-10T08:27:39.819Z,11.45
2023-04-10T08:30:09.200Z,12.15
2023-04-10T08:32:39.517Z,13.43
2023-04-10T08:35:08.536Z,12.88
2023-04-10T08:37:37.133Z,12.25
2023-04-10T08:40:06.131Z,13.70
2023-04-10T08:42:34.721Z,11.75
2023-04-10T08:45:05.093Z,14.50
2023-04-10T08:47:36.680Z,11.77
2023-04-10T08:50:10.196Z,11.95
2023-04-10T08:52:39.903Z,8.77
2023-04-10T08:55:09.729Z,13.40
2023-04-10T08:57:39.048Z,12.65
2023-04-10T09:02:44.736Z,13.30
2023-04-10T09:05:14.575Z,13.23
2023-04-10T09:07:42.827Z,12.17
2023-04-10T09:10:11.527Z,11.57
2023-04-10T09:12:47.277Z,10.77
2023-04-10T09:15:16.214Z,12.80
2023-04-10T09:17:58.167Z,8.20
2023-04-10T09:20:30.448Z,11.20
2023-04-10T09:22:59.244Z,11.02
2023-04-10T09:25:32.572Z,11.48
2023-04-10T09:28:02.476Z,17.98
2023-04-10T09:30:38.079Z,61.28
2023-04-10T09:33:23.042Z,16.33
2023-04-10T09:35:52.682Z,13.38
2023-04-10T09:38:22.101Z,85.07
2023-04-10T09:40:51.527Z,11.32
2023-04-10T09:43:22.931Z,12.10
2023-04-10T09:45:52.731Z,8.95
2023-04-10T09:48:21.867Z,11.65
2023-04-10T09:50:50.155Z,14.63
2023-04-10T09:53:21.835Z,15.05
2023-04-10T09:55:50.841Z,20.10
2023-04-10T09:58:19.203Z,15.65
2023-04-10T10:00:48.635Z,24.75
2023-04-10T10:03:18.612Z,15.63
2023-04-10T10:05:49.198Z,10.52
2023-04-10T10:08:19.389Z,10.35
2023-04-10T10:10:49.284Z,11.02
2023-04-10T10:13:19.453Z,12.20
2023-04-10T10:15:53.138Z,12.77
2023-04-10T10:18:26.338Z,11.80
2023-04-10T10:20:54.693Z,9.82
2023-04-10T10:23:24.896Z,8.45
2023-04-10T10:25:54.077Z,12.55
2023-04-10T10:28:22.502Z,10.75
2023-04-10T10:30:51.534Z,11.07
2023-04-10T10:33:20.220Z,6.20
2023-04-10T10:35:50.085Z,9.10
2023-04-10T10:38:19.725Z,11.27
2023-04-10T10:40:56.174Z,12.57
2023-04-10T10:43:28.409Z,12.60
2023-04-10T10:46:00.613Z,11.60
2023-04-10T10:48:29.419Z,10.90
2023-04-10T10:50:59.350Z,10.15
2023-04-10T10:53:35.148Z,10.13
2023-04-10T10:56:36.106Z,12.27
2023-04-10T10:59:04.395Z,10.80
2023-04-10T11:01:32.723Z,12.52
2023-04-10T11:04:01.504Z,12.13
2023-04-10T11:06:52.089Z,11.95
2023-04-10T11:09:48.636Z,10.60
2023-04-10T11:12:20.411Z,10.73
2023-04-10T11:14:58.419Z,9.60
2023-04-10T11:17:49.820Z,11.93
2023-04-10T11:20:18.333Z,11.38
2023-04-10T11:23:08.400Z,10.65
2023-04-10T11:25:55.770Z,12.57
2023-04-10T11:28:38.476Z,8.70
2023-04-10T11:31:18.636Z,7.82
2023-04-10T11:33:47.377Z,8.52
2023-04-10T11:36:17.486Z,10.23
2023-04-10T11:38:56.358Z,7.22
2023-04-10T11:41:28.603Z,5.60
2023-04-10T11:43:58.872Z,6.43
2023-04-10T11:46:27.212Z,10.25
2023-04-10T11:48:59.269Z,7.70
2023-04-10T11:51:28.396Z,8.52
2023-04-10T11:54:07.512Z,5.80
2023-04-10T11:56:36.514Z,5.75
2023-04-10T11:59:10.812Z,6.47
2023-04-10T12:01:42.454Z,5.95
2023-04-10T12:04:18.012Z,6.22
2023-04-10T12:06:46.925Z,8.70
2023-04-10T12:09:17.172Z,5.60
2023-04-10T12:11:52.881Z,5.90
2023-04-10T12:14:23.200Z,5.15
2023-04-10T12:16:52.874Z,6.25
2023-04-10T12:19:21.641Z,6.95
2023-04-10T12:21:50.165Z,5.88
2023-04-10T12:24:42.527Z,6.40
2023-04-10T12:27:16.930Z,5.43
2023-04-10T12:29:46.850Z,5.75
2023-04-10T12:32:15.430Z,5.82
2023-04-10T12:34:43.804Z,5.88
2023-04-10T12:37:13.364Z,4.20
2023-04-10T12:39:41.646Z,5.60
2023-04-10T12:42:13.649Z,6.65
2023-04-10T12:44:53.893Z,6.43
2023-04-10T12:47:22.297Z,6.30
2023-04-10T12:50:07.246Z,4.65
2023-04-10T12:52:35.681Z,5.78
2023-04-10T12:55:14.685Z,4.90
2023-04-10T12:57:43.335Z,4.93
2023-04-10T13:00:17.084Z,5.32
2023-04-10T13:02:45.893Z,4.65
2023-04-10T13:05:14.615Z,4.70
2023-04-10T13:07:43.257Z,5.00
2023-04-10T13:10:11.726Z,4.60
2023-04-10T13:12:41.885Z,4.15
2023-04-10T13:15:11.518Z,4.32
2023-04-10T13:17:41.858Z,4.40
2023-04-10T13:20:11.379Z,3.92
2023-04-10T13:22:39.593Z,4.50
2023-04-10T13:25:08.327Z,5.35
2023-04-10T13:27:36.607Z,3.40
2023-04-10T13:30:05.470Z,4.43
2023-04-10T13:32:33.757Z,6.68
2023-04-10T13:35:03.432Z,4.55
2023-04-10T13:37:31.721Z,4.10
2023-04-10T13:39:59.988Z,4.70
2023-04-10T13:42:28.432Z,2.85
2023-04-10T13:44:56.702Z,4.88
2023-04-10T13:47:25.086Z,4.65
2023-04-10T13:49:53.340Z,4.53
2023-04-10T13:52:23.117Z,4.65
2023-04-10T13:54:51.334Z,4.17
2023-04-10T13:57:19.647Z,4.90
2023-04-10T13:59:47.883Z,4.63
2023-04-10T14:02:16.151Z,4.38
2023-04-10T14:04:46.185Z,4.20
2023-04-10T14:07:14.455Z,5.53
2023-04-10T14:09:44.057Z,4.93
2023-04-10T14:12:12.501Z,4.45
2023-04-10T14:14:40.788Z,4.63
2023-04-10T14:17:09.112Z,5.18
2023-04-10T14:19:38.393Z,5.13
2023-04-10T14:22:06.832Z,5.97
2023-04-10T14:24:35.109Z,4.03
2023-04-10T14:27:04.910Z,4.88
2023-04-10T14:29:38.796Z,5.32
2023-04-10T14:32:08.924Z,4.78
2023-04-10T14:34:37.287Z,5.65
2023-04-10T14:37:05.556Z,4.30
2023-04-10T14:39:33.974Z,4.43
2023-04-10T14:42:03.233Z,3.15
2023-04-10T14:44:32.917Z,4.15
2023-04-10T14:47:01.206Z,4.43
2023-04-10T14:49:29.461Z,4.22
2023-04-10T14:51:57.725Z,4.63
2023-04-10T14:54:26.109Z,3.40
2023-04-10T14:56:54.395Z,3.83
2023-04-10T14:59:22.610Z,3.20
2023-04-10T15:01:54.055Z,3.58
2023-04-10T15:04:22.628Z,4.75
2023-04-10T15:06:51.943Z,4.07
2023-04-10T15:09:21.894Z,4.95
2023-04-10T15:11:50.443Z,4.03
2023-04-10T15:14:18.781Z,4.45
2023-04-10T15:16:47.395Z,4.00
2023-04-10T15:19:17.148Z,4.65
2023-04-10T15:21:45.501Z,3.80
2023-04-10T15:24:13.755Z,4.07
2023-04-10T15:26:44.774Z,3.13
2023-04-10T15:29:13.258Z,4.40
2023-04-10T15:31:42.098Z,4.85
2023-04-10T15:34:10.581Z,4.57
2023-04-10T15:36:40.286Z,4.07
2023-04-10T15:39:08.634Z,4.13
2023-04-10T15:41:36.942Z,5.05
2023-04-10T15:44:05.419Z,4.50
2023-04-10T15:46:34.177Z,3.90
2023-04-10T15:49:02.492Z,4.25
2023-04-10T15:51:30.749Z,4.50
2023-04-10T15:54:00.427Z,4.28
2023-04-10T15:56:28.887Z,11.53
2023-04-10T15:58:57.153Z,5.38
2023-04-10T16:01:25.760Z,4.38
2023-04-10T16:03:54.376Z,4.38
2023-04-10T16:06:25.809Z,3.83
2023-04-10T16:08:54.453Z,4.15
2023-04-10T16:11:24.133Z,4.50
2023-04-10T16:13:52.400Z,5.13
2023-04-10T16:16:20.806Z,5.18
2023-04-10T16:18:49.060Z,4.70
2023-04-10T16:21:17.345Z,4.82
2023-04-10T16:23:45.624Z,5.10
2023-04-10T16:26:13.919Z,4.78
2023-04-10T16:28:43.483Z,5.75
2023-04-10T16:31:12.001Z,5.07
2023-04-10T16:33:40.319Z,5.10
2023-04-10T16:36:09.191Z,5.45
2023-04-10T16:38:37.487Z,6.10
2023-04-10T16:41:06.815Z,4.95
2023-04-10T16:43:35.827Z,7.18
2023-04-10T16:46:06.094Z,5.80
2023-04-10T16:48:36.192Z,6.25
2023-04-10T16:51:06.213Z,6.18
2023-04-10T16:53:35.923Z,6.90
2023-04-10T16:56:05.059Z,8.63
2023-04-10T16:58:34.417Z,6.43
2023-04-10T17:01:13.801Z,6.45
2023-04-10T17:03:42.121Z,6.82
2023-04-10T17:06:10.487Z,6.57
2023-04-10T17:08:38.726Z,7.85
2023-04-10T17:11:07.300Z,9.57
2023-04-10T17:13:37.048Z,8.52
2023-04-10T17:16:05.923Z,6.47
2023-04-10T17:18:35.631Z,7.82
2023-04-10T17:21:03.990Z,6.10
2023-04-10T17:23:32.279Z,6.20
2023-04-10T17:26:00.691Z,6.90
2023-04-10T17:28:28.983Z,7.75
2023-04-10T17:30:57.285Z,6.13
2023-04-10T17:33:25.594Z,5.93
2023-04-10T17:35:55.496Z,5.82
2023-04-10T17:38:23.804Z,8.30
2023-04-10T17:40:52.051Z,9.60
2023-04-10T17:43:20.294Z,6.60
2023-04-10T17:45:48.527Z,5.95
2023-04-10T17:48:16.922Z,8.43
2023-04-10T17:50:45.299Z,6.35
2023-04-10T17:53:14.908Z,7.50
2023-04-10T17:55:43.190Z,8.77
2023-04-10T17:58:11.455Z,6.00
2023-04-10T18:00:41.897Z,7.07
2023-04-10T18:03:10.406Z,6.60
2023-04-10T18:05:39.764Z,5.82
2023-04-10T18:08:08.739Z,6.13
2023-04-10T18:10:38.450Z,6.75
2023-04-10T18:13:07.352Z,6.90
2023-04-10T18:15:35.654Z,6.40
2023-04-10T18:18:04.097Z,6.88
2023-04-10T18:20:32.413Z,5.55
2023-04-10T18:23:03.274Z,6.38
2023-04-10T18:25:32.632Z,6.75
2023-04-10T18:28:13.078Z,7.28
2023-04-10T18:30:42.527Z,6.93
2023-04-10T18:33:11.416Z,6.85
2023-04-10T18:35:40.111Z,8.05
2023-04-10T18:38:08.382Z,6.38
2023-04-10T18:40:36.907Z,5.95
2023-04-10T18:43:06.627Z,5.30
2023-04-10T18:45:35.102Z,7.32
2023-04-10T18:48:03.472Z,6.03
2023-04-10T18:50:32.376Z,6.45
2023-04-10T18:53:00.732Z,6.30
2023-04-10T18:55:28.971Z,6.63
2023-04-10T18:57:57.409Z,6.78
2023-04-10T19:00:27.020Z,6.88
2023-04-10T19:02:56.357Z,6.40
2023-04-10T19:05:24.793Z,7.70
2023-04-10T19:08:02.974Z,10.30
2023-04-10T19:10:32.312Z,8.35
2023-04-10T19:13:00.518Z,6.80
2023-04-10T19:15:30.189Z,8.15
2023-04-10T19:17:58.555Z,9.43
2023-04-10T19:20:49.944Z,12.57
2023-04-10T19:23:15.154Z,12.85
2023-04-10T19:25:43.700Z,13.55
2023-04-10T19:28:11.997Z,11.65
2023-04-10T19:30:41.628Z,14.77
2023-04-10T19:33:10.046Z,11.50
2023-04-10T19:35:38.300Z,11.00
2023-04-10T19:38:06.618Z,8.75
2023-04-10T19:40:34.866Z,8.40
2023-04-10T19:43:03.179Z,9.10
2023-04-10T19:45:32.477Z,9.75
2023-04-10T19:48:02.157Z,8.85
2023-04-10T19:50:31.166Z,8.15
2023-04-10T19:52:59.621Z,8.38
2023-04-10T19:55:28.107Z,9.05
2023-04-10T19:57:56.362Z,7.75
2023-04-10T20:00:24.673Z,7.45
2023-04-10T20:02:53.172Z,9.48
2023-04-10T20:05:22.992Z,8.55
2023-04-10T20:07:51.464Z,7.80
2023-04-10T20:10:20.618Z,10.80
2023-04-10T20:12:48.925Z,9.80
2023-04-10T20:15:17.564Z,8.13
2023-04-10T20:17:45.796Z,8.73
2023-04-10T20:20:14.242Z,9.65
2023-04-10T20:22:43.948Z,11.13
2023-04-10T20:25:12.215Z,9.13
2023-04-10T20:27:40.520Z,10.27
2023-04-10T20:30:09.952Z,10.48
2023-04-10T20:32:38.796Z,10.05
2023-04-10T20:35:08.295Z,8.82
2023-04-10T20:37:36.536Z,10.32
2023-04-10T20:40:07.628Z,8.85
2023-04-10T20:42:36.021Z,9.07
2023-04-10T20:45:04.533Z,13.93
2023-04-10T20:47:32.786Z,10.15
2023-04-10T20:50:01.089Z,10.57
2023-04-10T20:52:29.360Z,8.40
2023-04-10T20:54:57.585Z,10.13
2023-04-10T20:57:27.201Z,8.32
2023-04-10T20:59:55.578Z,10.07
2023-04-10T21:02:24.045Z,9.07
2023-04-10T21:04:52.964Z,10.80
2023-04-10T21:07:21.216Z,10.10
2023-04-10T21:09:49.496Z,15.35
2023-04-10T21:12:17.743Z,14.88
2023-04-10T21:14:48.134Z,12.48
2023-04-10T21:17:16.680Z,13.82
2023-04-10T21:19:45.025Z,12.63
2023-04-10T21:22:13.282Z,9.43
2023-04-10T21:24:41.575Z,10.32
2023-04-10T21:27:09.845Z,15.02
2023-04-10T21:29:38.122Z,11.35
2023-04-10T21:32:07.976Z,14.98
2023-04-10T21:34:36.230Z,14.27
2023-04-10T21:37:04.506Z,10.57
2023-04-10T21:39:32.769Z,11.57
2023-04-10T21:42:01.137Z,10.25
2023-04-10T21:44:29.350Z,12.10
2023-04-10T21:46:57.640Z,10.00
2023-04-10T21:49:27.353Z,11.60
2023-04-10T21:51:55.821Z,11.77
2023-04-10T21:54:24.068Z,11.63
2023-04-10T21:56:52.306Z,12.55
2023-04-10T21:59:20.639Z,11.88
2023-04-10T22:01:48.966Z,11.85
2023-04-10T22:04:17.484Z,11.45
2023-04-10T22:06:47.188Z,13.57
2023-04-10T22:09:15.503Z,12.13
2023-04-10T22:11:43.788Z,9.98
2023-04-10T22:14:17.857Z,11.02
2023-04-10T22:16:47.786Z,11.57
2023-04-10T22:19:15.991Z,9.30
2023-04-10T22:21:44.334Z,11.48
2023-04-10T22:24:14.057Z,9.52
2023-04-10T22:26:45.901Z,10.53
2023-04-10T22:29:14.950Z,8.75
2023-04-10T22:31:44.141Z,10.10
2023-04-10T22:34:12.389Z,7.97
2023-04-10T22:36:41.496Z,10.32
2023-04-10T22:39:09.968Z,11.60
2023-04-10T22:41:39.543Z,13.05
2023-04-10T22:44:08.292Z,12.10
2023-04-10T22:46:36.748Z,13.05
2023-04-10T22:49:05.018Z,12.10
2023-04-10T22:51:33.286Z,10.50
2023-04-10T22:54:01.684Z,11.70
2023-04-10T22:56:29.961Z,9.63
2023-04-10T22:58:59.555Z,11.70
2023-04-10T23:01:27.906Z,9.65
2023-04-10T23:03:56.192Z,9.32
2023-04-10T23:06:24.587Z,11.60
2023-04-10T23:08:53.056Z,9.90
2023-04-10T23:11:21.769Z,9.50
2023-04-10T23:13:50.131Z,10.98
2023-04-10T23:16:19.774Z,9.93
2023-04-10T23:18:48.055Z,8.27
2023-04-10T23:21:16.386Z,9.60
2023-04-10T23:23:44.639Z,10.35
2023-04-10T23:26:12.871Z,9.40
2023-04-10T23:28:41.432Z,9.60
2023-04-10T23:31:10.230Z,9.70
2023-04-10T23:33:39.857Z,11.27
2023-04-10T23:36:08.723Z,8.30
2023-04-10T23:38:37.051Z,8.88
2023-04-10T23:41:05.482Z,10.82
2023-04-10T23:43:34.100Z,8.32
2023-04-10T23:46:02.435Z,9.80
2023-04-10T23:48:31.100Z,10.05
2023-04-10T23:51:08.306Z,7.82
2023-04-10T23:53:36.693Z,8.98
2023-04-10T23:56:05.182Z,8.43
2023-04-10T23:58:33.496Z,8.95
